Johannesburg, South Africa
Current Conditions -  °F | °C
As of 4:30 PM on Monday 26 Jan 2015 (Local Time) from FAOR Reporting Station
Clear Clear  
Wind Chill: 27°   Ceiling: Unl
Heat Index: 27°   Visibility: 6mi
Dew Point: 12°   Wind: 10mph
Humidity: 39%   Direction: 310°NW
Pressure: 30.15"   Gusts: NA
Location:  26.19°S, 28.04°E
Report Text: FAOR 261430Z 31009KT 260V010 CAVOK 27/12 Q1021 NOSIG
Loading
Personal Weather Stations






























Interactive Weather Map New forecast layout! Learn more

10-Day Weather Forecast

Advertisements
Track Severe Weather on mobile